Tipton Airport Fort Meade(Odenton) US
ICAO: KFME
IATA: FME
Category: Medium
Scheduled Services: No

Elevation: 150 ft
TransAlt. 18000 ft.

Airport Communications:
POTOMAC APP DEP:119.7
AWOS 3:123.925
CTAF/UNICOM:123.05

KFME Zoom In..

If you have problems with the map follow the link
https://www.worldairports.se/pages/airport.php?
ICAO=KFME

Runways:

(A) RW 10 length 3000 ft width 75 ft
---- / hdg 104

(B) RW 28 length 3000 ft width 75 ft
---- / hdg 284

Location; KFME
Day. 22 / Time. 00.03 Zulu
* Altimeter: 30.07
* Temperature: 13° c. 55.4°f.
* Wind from: 000° Speed 00 kn.
Dewpoint: 08° c.
Visibility: 10 Statute Miles.
Clouds: Scattered 5500 ft.
Clouds: Scattered 7000 ft.
Clouds: Broken 8000 ft.

KFME 220003Z AUTO 00000KT 10SM SCT055 SCT070 BKN080 13/08 A3007 RMK AO1


Wind - Calm.

 
 
jpsmedia.com for Web Design worldairports.se 2019   terms of use